createdAt,value
2017-07-02T00:00:40.380Z,21.71
2017-07-02T00:01:49.987Z,21.71
2017-07-02T00:02:59.897Z,21.86
2017-07-02T00:04:09.498Z,21.72
2017-07-02T00:05:19.732Z,21.79
2017-07-02T00:06:29.022Z,21.79
2017-07-02T00:07:39.228Z,21.74
2017-07-02T00:08:49.440Z,21.68
2017-07-02T00:09:59.046Z,21.69
2017-07-02T00:11:09.255Z,21.72
2017-07-02T00:12:19.464Z,21.74
2017-07-02T00:13:29.671Z,21.71
2017-07-02T00:14:39.886Z,21.65
2017-07-02T00:15:49.483Z,21.65
2017-07-02T00:16:59.401Z,21.64
2017-07-02T00:18:09.012Z,21.74
2017-07-02T00:19:19.232Z,21.64
2017-07-02T00:20:29.449Z,21.65
2017-07-02T00:21:39.056Z,21.59
2017-07-02T00:22:48.658Z,21.56
2017-07-02T00:23:58.874Z,21.59
2017-07-02T00:25:09.087Z,21.59
2017-07-02T00:26:18.693Z,21.59
2017-07-02T00:27:28.621Z,21.61
2017-07-02T00:28:38.232Z,21.64
2017-07-02T00:29:48.143Z,21.68
2017-07-02T00:30:57.739Z,21.72
2017-07-02T00:32:07.645Z,21.72
2017-07-02T00:33:17.545Z,21.79
2017-07-02T00:34:27.453Z,21.72
2017-07-02T00:35:37.362Z,21.86
2017-07-02T00:36:46.655Z,21.82
2017-07-02T00:37:56.248Z,21.84
2017-07-02T00:39:05.538Z,21.8
2017-07-02T00:40:15.742Z,21.82
2017-07-02T00:41:25.353Z,21.77
2017-07-02T00:42:34.963Z,21.77
2017-07-02T00:43:44.863Z,21.86
2017-07-02T00:44:55.074Z,21.86
2017-07-02T00:46:05.286Z,21.84
2017-07-02T00:47:15.208Z,21.94
2017-07-02T00:48:25.414Z,21.96
2017-07-02T00:49:35.327Z,21.83
2017-07-02T00:50:45.244Z,22
2017-07-02T00:51:55.527Z,21.99
2017-07-02T00:53:05.760Z,22.03
2017-07-02T00:54:15.686Z,21.99
2017-07-02T00:55:25.593Z,21.99
2017-07-02T00:56:35.503Z,21.96
2017-07-02T00:57:45.412Z,21.98
2017-07-02T00:58:55.624Z,21.99
2017-07-02T01:00:04.614Z,21.9
2017-07-02T01:01:14.834Z,21.86
2017-07-02T01:02:24.431Z,21.88
2017-07-02T01:03:34.645Z,21.9
2017-07-02T01:04:44.243Z,21.82
2017-07-02T01:05:54.149Z,21.94
2017-07-02T01:07:04.357Z,21.9
2017-07-02T01:08:13.967Z,21.92
2017-07-02T01:09:23.908Z,21.94
2017-07-02T01:10:33.815Z,21.83
2017-07-02T01:11:44.030Z,22
2017-07-02T01:12:53.638Z,21.92
2017-07-02T01:14:03.234Z,21.9
2017-07-02T01:15:13.136Z,21.84
2017-07-02T01:16:23.340Z,21.91
2017-07-02T01:17:33.246Z,21.75
2017-07-02T01:18:43.462Z,21.9
2017-07-02T01:19:53.374Z,21.88
2017-07-02T01:21:03.577Z,21.91
2017-07-02T01:22:13.486Z,21.88
2017-07-02T01:23:23.398Z,21.92
2017-07-02T01:24:33.306Z,21.83
2017-07-02T01:25:42.907Z,21.77
2017-07-02T01:26:52.203Z,21.79
2017-07-02T01:28:02.111Z,21.8
2017-07-02T01:29:12.030Z,21.77
2017-07-02T01:30:22.245Z,21.84
2017-07-02T01:31:31.547Z,21.82
2017-07-02T01:32:41.160Z,21.79
2017-07-02T01:33:51.085Z,21.9
2017-07-02T01:35:01.315Z,21.77
2017-07-02T01:36:11.217Z,21.77
2017-07-02T01:37:21.429Z,21.79
2017-07-02T01:38:31.378Z,21.83
2017-07-02T01:39:41.286Z,21.8
2017-07-02T01:40:51.192Z,21.75
2017-07-02T01:42:01.466Z,21.75
2017-07-02T01:43:11.362Z,21.65
2017-07-02T01:44:21.268Z,21.59
2017-07-02T01:45:31.483Z,21.61
2017-07-02T01:46:41.082Z,21.58
2017-07-02T01:47:51.290Z,21.58
2017-07-02T01:49:01.196Z,21.4
2017-07-02T01:50:11.401Z,21.4
2017-07-02T01:51:21.005Z,21.43
2017-07-02T01:52:31.217Z,21.43
2017-07-02T01:53:41.123Z,21.43
2017-07-02T01:54:51.345Z,21.42
2017-07-02T01:56:01.572Z,21.47
2017-07-02T01:57:11.161Z,21.49
2017-07-02T01:58:20.757Z,21.54
2017-07-02T01:59:30.970Z,21.54
2017-07-02T02:00:41.184Z,21.56
2017-07-02T02:01:51.085Z,21.61
2017-07-02T02:03:01.301Z,21.53
2017-07-02T02:04:10.893Z,21.53
2017-07-02T02:05:21.106Z,21.56
2017-07-02T02:06:30.692Z,21.53
2017-07-02T02:07:39.983Z,21.52
2017-07-02T02:08:49.886Z,21.56
2017-07-02T02:09:59.802Z,21.53
2017-07-02T02:11:10.006Z,21.52
2017-07-02T02:12:19.605Z,21.53
2017-07-02T02:13:29.514Z,21.52
2017-07-02T02:14:39.799Z,21.47
2017-07-02T02:15:50.006Z,21.43
2017-07-02T02:16:59.909Z,21.44
2017-07-02T02:18:10.133Z,21.37
2017-07-02T02:19:19.740Z,21.37
2017-07-02T02:20:29.026Z,21.4
2017-07-02T02:21:39.234Z,21.43
2017-07-02T02:22:49.438Z,21.35
2017-07-02T02:23:59.349Z,21.35
2017-07-02T02:25:09.613Z,21.42
2017-07-02T02:26:19.837Z,21.44
2017-07-02T02:27:29.742Z,21.37
2017-07-02T02:28:39.650Z,21.35
2017-07-02T02:29:49.266Z,21.35
2017-07-02T02:30:58.886Z,21.35
2017-07-02T02:32:08.791Z,21.27
2017-07-02T02:33:18.697Z,21.28
2017-07-02T02:34:28.614Z,21.35
2017-07-02T02:35:38.826Z,21.28
2017-07-02T02:37:57.522Z,21.34
2017-07-02T02:39:07.425Z,21.32
2017-07-02T02:40:17.331Z,21.31
2017-07-02T02:41:27.239Z,21.32
2017-07-02T02:42:36.531Z,21.34
2017-07-02T02:43:46.493Z,21.24
2017-07-02T02:44:56.694Z,21.22
2017-07-02T02:46:06.294Z,21.25
2017-07-02T02:47:15.900Z,21.12
2017-07-02T02:48:24.911Z,21.07
2017-07-02T02:49:34.929Z,21.09
2017-07-02T02:50:45.142Z,21.03
2017-07-02T02:51:55.356Z,20.95
2017-07-02T02:53:05.266Z,20.95
2017-07-02T02:54:14.881Z,20.92
2017-07-02T02:55:25.134Z,21.03
2017-07-02T02:56:35.337Z,20.97
2017-07-02T02:57:45.543Z,21.01
2017-07-02T02:58:55.449Z,20.97
2017-07-02T03:00:05.053Z,20.91
2017-07-02T03:01:14.980Z,20.99
2017-07-02T03:02:24.893Z,20.99
2017-07-02T03:03:35.110Z,20.95
2017-07-02T03:04:45.314Z,20.97
2017-07-02T03:05:55.229Z,20.92
2017-07-02T03:07:05.600Z,20.97
2017-07-02T03:08:15.531Z,20.89
2017-07-02T03:09:25.125Z,20.99
2017-07-02T03:10:35.328Z,21.06
2017-07-02T03:11:45.233Z,21.03
2017-07-02T03:12:55.327Z,21.03
2017-07-02T03:14:05.544Z,21.01
2017-07-02T03:15:15.755Z,20.97
2017-07-02T03:16:25.972Z,20.95
2017-07-02T03:17:35.571Z,20.97
2017-07-02T03:18:45.783Z,21.04
2017-07-02T03:19:55.689Z,21.03
2017-07-02T03:21:05.900Z,21.06
2017-07-02T03:22:16.176Z,21.07
2017-07-02T03:23:26.373Z,21.09
2017-07-02T03:24:36.324Z,21.13
2017-07-02T03:25:46.956Z,21.06
2017-07-02T03:26:57.158Z,21.16
2017-07-02T03:28:07.065Z,21.13
2017-07-02T03:29:16.956Z,21.25
2017-07-02T03:30:27.002Z,21.13
2017-07-02T03:31:36.600Z,21.13
2017-07-02T03:32:46.817Z,21.01
2017-07-02T03:33:56.416Z,21.03
2017-07-02T03:35:06.018Z,20.99
2017-07-02T03:36:15.718Z,20.95
2017-07-02T03:37:25.929Z,20.95
2017-07-02T03:38:36.146Z,20.99
2017-07-02T03:39:46.359Z,20.92
2017-07-02T03:40:56.581Z,21.01
2017-07-02T03:42:06.838Z,21.04
2017-07-02T03:43:17.093Z,21.04
2017-07-02T03:44:26.409Z,21.01
2017-07-02T03:45:36.012Z,21.1
2017-07-02T03:46:45.925Z,21.1
2017-07-02T03:47:55.516Z,21.06
2017-07-02T03:49:05.449Z,21.01
2017-07-02T03:50:15.369Z,21.09
2017-07-02T03:51:24.971Z,21.09
2017-07-02T03:52:35.188Z,21.17
2017-07-02T03:53:45.508Z,21.22
2017-07-02T03:54:55.716Z,21.27
2017-07-02T03:56:05.614Z,21.24
2017-07-02T03:57:15.547Z,21.16
2017-07-02T03:58:25.444Z,21.27
2017-07-02T03:59:36.002Z,21.21
2017-07-02T04:00:45.917Z,21.25
2017-07-02T04:01:55.515Z,21.21
2017-07-02T04:03:05.430Z,21.24
2017-07-02T04:04:15.044Z,21.13
2017-07-02T04:05:24.732Z,21.16
2017-07-02T04:06:34.634Z,21.14
2017-07-02T04:07:44.765Z,21.17
2017-07-02T04:08:54.971Z,21.12
2017-07-02T04:10:04.561Z,21.16
2017-07-02T04:11:14.525Z,21.19
2017-07-02T04:12:24.117Z,21.32
2017-07-02T04:13:34.025Z,21.35
2017-07-02T04:14:43.935Z,21.43
2017-07-02T04:15:53.241Z,21.49
2017-07-02T04:17:03.292Z,21.54
2017-07-02T04:18:12.893Z,21.5
2017-07-02T04:19:23.092Z,21.44
2017-07-02T04:20:32.404Z,21.49
2017-07-02T04:21:42.303Z,21.46
2017-07-02T04:22:52.366Z,21.58
2017-07-02T04:24:01.667Z,21.56
2017-07-02T04:25:10.647Z,21.61
2017-07-02T04:26:20.555Z,21.58
2017-07-02T04:27:30.769Z,21.58
2017-07-02T04:28:40.240Z,21.49
2017-07-02T04:29:50.443Z,21.43
2017-07-02T04:31:00.360Z,21.37
2017-07-02T04:32:10.260Z,21.37
2017-07-02T04:33:20.168Z,21.32
2017-07-02T04:34:30.757Z,21.21
2017-07-02T04:35:40.677Z,21.21
2017-07-02T04:36:50.611Z,21.21
2017-07-02T04:38:00.826Z,21.14
2017-07-02T04:39:10.755Z,21.16
2017-07-02T04:40:21.016Z,21.13
2017-07-02T04:41:30.909Z,21.13
2017-07-02T04:42:41.110Z,21.17
2017-07-02T04:43:50.705Z,21.16
2017-07-02T04:45:00.325Z,21.24
2017-07-02T04:46:10.530Z,21.27
2017-07-02T04:47:20.432Z,21.31
2017-07-02T04:48:30.029Z,21.24
2017-07-02T04:49:40.240Z,21.29
2017-07-02T04:50:50.151Z,21.38
2017-07-02T04:52:00.242Z,21.32
2017-07-02T04:53:09.843Z,21.4
2017-07-02T04:54:20.048Z,21.44
2017-07-02T04:55:29.353Z,21.47
2017-07-02T04:56:39.253Z,21.46
2017-07-02T04:57:48.691Z,21.52
2017-07-02T04:58:58.895Z,21.5
2017-07-02T05:00:08.801Z,21.58
2017-07-02T05:01:18.404Z,21.61
2017-07-02T05:02:28.609Z,21.64
2017-07-02T05:03:38.504Z,21.53
2017-07-02T05:04:48.717Z,21.64
2017-07-02T05:05:58.320Z,21.64
2017-07-02T05:07:07.921Z,21.69
2017-07-02T05:08:18.146Z,21.67
2017-07-02T05:09:27.746Z,21.74
2017-07-02T05:10:37.643Z,21.69
2017-07-02T05:11:47.860Z,21.96
2017-07-02T05:12:57.787Z,21.99
2017-07-02T05:14:07.383Z,22.06
2017-07-02T05:15:17.294Z,21.98
2017-07-02T05:16:27.230Z,22
2017-07-02T05:17:37.442Z,22.17
2017-07-02T05:18:47.706Z,22.21
2017-07-02T05:19:57.606Z,22.2
2017-07-02T05:21:07.917Z,22.25
2017-07-02T05:22:18.115Z,22.25
2017-07-02T05:23:27.711Z,22.28
2017-07-02T05:24:37.615Z,22.42
2017-07-02T05:25:47.524Z,22.37
2017-07-02T05:26:57.280Z,22.39
2017-07-02T05:28:07.839Z,22.35
2017-07-02T05:29:17.133Z,22.39
2017-07-02T05:30:27.367Z,22.3
2017-07-02T05:31:37.574Z,22.24
2017-07-02T05:32:47.876Z,22.24
2017-07-02T05:33:57.779Z,22.21
2017-07-02T05:35:07.444Z,22.17
2017-07-02T05:36:17.656Z,22.2
2017-07-02T05:37:27.250Z,22.18
2017-07-02T05:38:37.148Z,22.18
2017-07-02T05:39:47.356Z,22.22
2017-07-02T05:40:57.561Z,22.14
2017-07-02T05:42:07.460Z,22.22
2017-07-02T05:43:17.379Z,22.22
2017-07-02T05:44:27.335Z,22.2
2017-07-02T05:45:37.248Z,22.2
2017-07-02T05:46:47.155Z,22.27
2017-07-02T05:47:57.068Z,22.22
2017-07-02T05:49:06.995Z,22.31
2017-07-02T05:50:17.046Z,22.21
2017-07-02T05:51:27.261Z,22.21
2017-07-02T05:52:37.162Z,22.24
2017-07-02T05:53:47.083Z,22.18
2017-07-02T05:54:56.390Z,22.1
2017-07-02T05:56:06.292Z,22.1
2017-07-02T05:57:15.906Z,22.03
2017-07-02T05:58:25.809Z,22.06
2017-07-02T05:59:36.031Z,21.99
2017-07-02T06:00:45.933Z,21.9
2017-07-02T06:01:55.844Z,22
2017-07-02T06:03:05.445Z,21.82
2017-07-02T06:04:15.045Z,21.91
2017-07-02T06:05:24.847Z,21.98
2017-07-02T06:06:35.281Z,21.83
2017-07-02T06:07:45.680Z,21.84
2017-07-02T06:08:56.312Z,21.86
2017-07-02T06:10:06.915Z,21.86
2017-07-02T06:11:16.581Z,21.86
2017-07-02T06:12:26.302Z,21.9
2017-07-02T06:13:36.644Z,21.88
2017-07-02T06:14:46.931Z,21.84
2017-07-02T06:15:57.621Z,21.77
2017-07-02T06:17:07.246Z,21.77
2017-07-02T06:18:17.483Z,21.8
2017-07-02T06:19:27.492Z,21.77
2017-07-02T06:20:37.716Z,21.77
2017-07-02T06:21:47.619Z,21.75
2017-07-02T06:22:57.939Z,21.79
2017-07-02T06:24:07.843Z,21.72
2017-07-02T06:25:17.906Z,21.67
2017-07-02T06:26:27.823Z,21.71
2017-07-02T06:27:37.734Z,21.82
2017-07-02T06:28:47.647Z,21.79
2017-07-02T06:29:57.565Z,21.8
2017-07-02T06:31:07.479Z,21.92
2017-07-02T06:32:17.074Z,21.9
2017-07-02T06:33:26.680Z,21.92
2017-07-02T06:34:36.905Z,21.94
2017-07-02T06:35:46.503Z,21.86
2017-07-02T06:36:56.465Z,21.98
2017-07-02T06:38:06.064Z,22
2017-07-02T06:39:16.080Z,21.98
2017-07-02T06:40:26.085Z,21.99
2017-07-02T06:41:35.997Z,22.02
2017-07-02T06:42:45.887Z,22.02
2017-07-02T06:43:55.791Z,22.03
2017-07-02T06:45:05.695Z,21.9
2017-07-02T06:46:15.584Z,21.88
2017-07-02T06:47:25.185Z,22
2017-07-02T06:48:34.834Z,21.91
2017-07-02T06:49:45.040Z,21.98
2017-07-02T06:50:55.258Z,21.96
2017-07-02T06:52:05.471Z,21.92
2017-07-02T06:53:15.680Z,22
2017-07-02T06:54:25.580Z,21.98
2017-07-02T06:55:35.187Z,22.02
2017-07-02T06:56:44.808Z,22
2017-07-02T06:57:56.150Z,21.98
2017-07-02T06:59:07.092Z,21.92
2017-07-02T07:00:16.091Z,21.99
2017-07-02T07:01:26.299Z,21.98
2017-07-02T07:02:36.523Z,22.14
2017-07-02T07:03:46.419Z,22.15
2017-07-02T07:04:56.633Z,22.18
2017-07-02T07:06:06.627Z,22.17
2017-07-02T07:07:16.836Z,22.24
2017-07-02T07:08:26.116Z,22.1
2017-07-02T07:09:36.321Z,22.22
2017-07-02T07:10:46.534Z,22.18
2017-07-02T07:11:56.288Z,22.15
2017-07-02T07:13:05.885Z,22.12
2017-07-02T07:14:15.799Z,22.21
2017-07-02T07:15:25.415Z,22.17
2017-07-02T07:16:35.021Z,22.22
2017-07-02T07:17:44.943Z,22.24
2017-07-02T07:18:54.556Z,22.25
2017-07-02T07:20:04.478Z,22.2
2017-07-02T07:21:13.846Z,22.15
2017-07-02T07:22:24.087Z,22.15
2017-07-02T07:23:34.488Z,22.15
2017-07-02T07:24:45.230Z,22.22
2017-07-02T07:25:54.536Z,22.27
2017-07-02T07:27:04.713Z,22.27
2017-07-02T07:28:14.552Z,22.28
2017-07-02T07:29:25.782Z,22.31
2017-07-02T07:30:35.497Z,22.31
2017-07-02T07:31:46.862Z,22.35
2017-07-02T07:32:57.083Z,22.39
2017-07-02T07:34:06.703Z,22.46
2017-07-02T07:35:16.940Z,22.52
2017-07-02T07:36:26.840Z,22.55
2017-07-02T07:37:37.055Z,22.55
2017-07-02T07:38:46.979Z,22.6
2017-07-02T07:39:56.944Z,22.73
2017-07-02T07:41:06.850Z,22.8
2017-07-02T07:42:17.065Z,22.82
2017-07-02T07:43:26.985Z,22.95
2017-07-02T07:44:36.641Z,23.01
2017-07-02T07:45:46.601Z,22.98
2017-07-02T07:46:56.920Z,23.1
2017-07-02T07:48:07.162Z,23.17
2017-07-02T07:49:16.772Z,23.23
2017-07-02T07:50:26.680Z,23.32
2017-07-02T07:51:35.674Z,23.36
2017-07-02T07:52:45.435Z,23.42
2017-07-02T07:53:55.650Z,23.5
2017-07-02T07:55:05.252Z,23.6
2017-07-02T07:56:15.182Z,23.61
2017-07-02T07:57:25.395Z,23.68
2017-07-02T07:58:35.142Z,23.79
2017-07-02T07:59:45.421Z,23.69
2017-07-02T08:00:55.339Z,23.79
2017-07-02T08:02:05.249Z,23.83
2017-07-02T08:03:15.466Z,23.94
2017-07-02T08:04:25.685Z,23.98
2017-07-02T08:05:35.895Z,24.03
2017-07-02T08:06:46.114Z,24.08
2017-07-02T08:07:55.714Z,24.1
2017-07-02T08:09:05.927Z,24.1
2017-07-02T08:10:15.989Z,24.25
2017-07-02T08:11:26.194Z,24.3
2017-07-02T08:12:35.798Z,24.4
2017-07-02T08:13:45.998Z,24.42
2017-07-02T08:14:55.902Z,24.4
2017-07-02T08:16:06.173Z,24.61
2017-07-02T08:17:15.773Z,24.61
2017-07-02T08:18:25.671Z,24.91
2017-07-02T08:19:35.267Z,25.18
2017-07-02T08:20:44.880Z,25.27
2017-07-02T08:21:54.858Z,25.39
2017-07-02T08:23:04.172Z,25.33
2017-07-02T08:24:14.115Z,25.3
2017-07-02T08:25:23.729Z,25.32
2017-07-02T08:26:33.665Z,25.28
2017-07-02T08:27:44.241Z,25.23
2017-07-02T08:28:54.156Z,25.18
2017-07-02T08:30:03.748Z,25.09
2017-07-02T08:31:14.101Z,25.09
2017-07-02T08:32:24.719Z,25.06
2017-07-02T08:33:34.925Z,25.06
2017-07-02T08:34:45.463Z,25.03
2017-07-02T08:35:55.379Z,25.02
2017-07-02T08:37:05.278Z,25.06
2017-07-02T08:38:15.947Z,25.06
2017-07-02T08:39:25.958Z,24.99
2017-07-02T08:40:36.327Z,25.03
2017-07-02T08:41:46.230Z,25.08
2017-07-02T08:42:56.242Z,25.09
2017-07-02T08:44:06.158Z,25.13
2017-07-02T08:45:16.535Z,25.13
2017-07-02T08:46:26.443Z,25.1
2017-07-02T08:47:36.356Z,25.1
2017-07-02T08:48:46.576Z,25.08
2017-07-02T08:49:56.226Z,25.14
2017-07-02T08:51:06.499Z,25.13
2017-07-02T08:52:16.409Z,25.13
2017-07-02T08:53:26.671Z,25.17
2017-07-02T08:54:36.298Z,25.17
2017-07-02T08:55:46.208Z,25.2
2017-07-02T08:56:57.800Z,25.17
2017-07-02T08:58:10.697Z,25.21
2017-07-02T08:59:22.708Z,25.21
2017-07-02T09:00:34.579Z,25.27
2017-07-02T09:01:45.316Z,25.36
2017-07-02T09:02:57.840Z,25.32
2017-07-02T09:04:10.227Z,25.28
2017-07-02T09:05:20.180Z,25.32
2017-07-02T09:06:32.307Z,25.28
2017-07-02T09:07:43.530Z,25.36
2017-07-02T09:08:55.905Z,25.36
2017-07-02T09:10:06.545Z,25.3
2017-07-02T09:11:16.755Z,25.25
2017-07-02T09:12:26.690Z,25.17
2017-07-02T09:13:37.055Z,24.98
2017-07-02T09:14:46.681Z,24.88
2017-07-02T09:15:56.899Z,24.73
2017-07-02T09:17:06.814Z,24.6
2017-07-02T09:18:16.406Z,24.43
2017-07-02T09:19:26.617Z,24.28
2017-07-02T09:20:36.232Z,24.1
2017-07-02T09:21:46.178Z,24.06
2017-07-02T09:22:55.799Z,23.93
2017-07-02T09:24:05.406Z,23.9
2017-07-02T09:25:15.001Z,23.83
2017-07-02T09:26:24.898Z,23.85
2017-07-02T09:27:35.119Z,23.97
2017-07-02T09:28:44.749Z,23.88
2017-07-02T09:29:54.085Z,23.88
2017-07-02T09:31:04.091Z,23.91
2017-07-02T09:32:14.043Z,23.91
2017-07-02T09:33:24.292Z,23.91
2017-07-02T09:34:34.215Z,23.93
2017-07-02T09:35:43.829Z,24.02
2017-07-02T09:36:53.892Z,24.08
2017-07-02T09:38:04.118Z,24.08
2017-07-02T09:39:13.486Z,24.06
2017-07-02T09:40:22.782Z,24.13
2017-07-02T09:41:33.008Z,24.09
2017-07-02T09:42:43.046Z,24.1
2017-07-02T09:43:52.672Z,24.1
2017-07-02T09:45:02.583Z,24.08
2017-07-02T09:46:12.492Z,24.03
2017-07-02T09:47:22.716Z,24.06
2017-07-02T09:48:32.664Z,24.06
2017-07-02T09:49:42.567Z,24.03
2017-07-02T09:50:51.867Z,23.95
2017-07-02T09:52:01.768Z,23.9
2017-07-02T09:53:11.359Z,23.91
2017-07-02T09:54:21.151Z,23.88
2017-07-02T09:55:31.081Z,23.9
2017-07-02T09:56:41.017Z,23.93
2017-07-02T09:57:50.630Z,23.94
2017-07-02T09:59:00.262Z,23.91
2017-07-02T10:00:10.171Z,23.85
2017-07-02T10:01:20.387Z,23.91
2017-07-02T10:02:30.587Z,23.93
2017-07-02T10:03:40.490Z,23.97
2017-07-02T10:04:50.125Z,23.97
2017-07-02T10:06:00.188Z,23.98
2017-07-02T10:07:10.104Z,24
2017-07-02T10:08:19.695Z,24.02
2017-07-02T10:09:29.622Z,24.09
2017-07-02T10:10:39.834Z,24
2017-07-02T10:11:49.740Z,23.93
2017-07-02T10:12:59.354Z,23.95
2017-07-02T10:14:09.339Z,24.03
2017-07-02T10:15:18.947Z,24.09
2017-07-02T10:16:28.575Z,24.02
2017-07-02T10:17:38.367Z,24.03
2017-07-02T10:18:48.570Z,24.09
2017-07-02T10:19:58.169Z,24.05
2017-07-02T10:21:07.797Z,24.09
2017-07-02T10:22:18.028Z,24.08
2017-07-02T10:23:28.287Z,24.08
2017-07-02T10:24:37.886Z,24.09
2017-07-02T10:25:47.811Z,24.16
2017-07-02T10:26:57.764Z,24.2
2017-07-02T10:28:07.677Z,24.28
2017-07-02T10:29:17.581Z,24.32
2017-07-02T10:30:27.820Z,24.34
2017-07-02T10:31:37.724Z,24.32
2017-07-02T10:32:47.629Z,24.4
2017-07-02T10:33:57.556Z,24.5
2017-07-02T10:35:07.519Z,24.45
2017-07-02T10:36:16.834Z,24.57
2017-07-02T10:37:26.758Z,24.53
2017-07-02T10:38:36.975Z,24.64
2017-07-02T10:39:46.613Z,24.76
2017-07-02T10:40:56.819Z,24.77
2017-07-02T10:42:07.042Z,24.77
2017-07-02T10:43:16.953Z,24.87
2017-07-02T10:44:26.553Z,24.77
2017-07-02T10:45:36.462Z,24.9
2017-07-02T10:46:45.866Z,24.81
2017-07-02T10:47:55.776Z,24.81
2017-07-02T10:49:05.380Z,24.95
2017-07-02T10:50:14.980Z,24.96
2017-07-02T10:51:24.885Z,24.95
2017-07-02T10:52:35.111Z,24.93
2017-07-02T10:53:45.084Z,24.99
2017-07-02T10:54:55.286Z,24.99
2017-07-02T10:56:05.503Z,25.06
2017-07-02T10:57:15.148Z,25.1
2017-07-02T10:58:24.729Z,25
2017-07-02T10:59:34.948Z,25.13
2017-07-02T11:00:43.938Z,25.13
2017-07-02T11:01:54.149Z,25.06
2017-07-02T11:03:04.369Z,25.13
2017-07-02T11:04:14.434Z,25.13
2017-07-02T11:05:24.043Z,25.1
2017-07-02T11:06:33.939Z,25.03
2017-07-02T11:07:43.587Z,25.17
2017-07-02T11:08:53.500Z,25.05
2017-07-02T11:10:03.772Z,25.03
2017-07-02T11:11:13.685Z,25.06
2017-07-02T11:12:23.597Z,24.99
2017-07-02T11:13:33.508Z,25.09
2017-07-02T11:14:43.418Z,25.08
2017-07-02T11:15:53.807Z,25.13
2017-07-02T11:17:03.754Z,25.06
2017-07-02T11:18:13.360Z,25.17
2017-07-02T11:19:23.256Z,25.14
2017-07-02T11:20:33.168Z,25.15
2017-07-02T11:21:43.371Z,25.15
2017-07-02T11:22:53.572Z,25.02
2017-07-02T11:24:03.191Z,24.84
2017-07-02T11:25:12.802Z,24.76
2017-07-02T11:26:22.720Z,24.6
2017-07-02T11:27:32.467Z,24.46
2017-07-02T11:28:42.391Z,24.45
2017-07-02T11:29:51.990Z,24.31
2017-07-02T11:31:01.895Z,24.16
2017-07-02T11:32:11.802Z,24.1
2017-07-02T11:33:22.007Z,24.02
2017-07-02T11:34:31.911Z,23.95
2017-07-02T11:35:41.508Z,23.9
2017-07-02T11:36:51.414Z,23.88
2017-07-02T11:38:01.329Z,23.83
2017-07-02T11:39:11.391Z,23.73
2017-07-02T11:40:21.032Z,23.65
2017-07-02T11:41:30.951Z,23.54
2017-07-02T11:42:40.547Z,23.57
2017-07-02T11:43:49.870Z,23.53
2017-07-02T11:44:59.826Z,23.47
2017-07-02T11:46:10.046Z,23.46
2017-07-02T11:47:19.970Z,23.39
2017-07-02T11:48:29.872Z,23.4
2017-07-02T11:49:39.802Z,23.35
2017-07-02T11:50:49.872Z,23.39
2017-07-02T11:51:59.777Z,23.25
2017-07-02T11:53:09.991Z,23.23
2017-07-02T11:54:19.914Z,23.19
2017-07-02T11:55:29.506Z,23.22
2017-07-02T11:56:39.201Z,23.17
2017-07-02T11:57:49.114Z,23.15
2017-07-02T11:58:59.026Z,23.19
2017-07-02T12:00:08.939Z,23.28
2017-07-02T12:01:18.244Z,23.22
2017-07-02T12:02:27.902Z,23.27
2017-07-02T12:03:37.506Z,23.23
2017-07-02T12:04:47.410Z,23.22
2017-07-02T12:05:57.614Z,23.16
2017-07-02T12:07:07.520Z,23.22
2017-07-02T12:08:17.800Z,23.16
2017-07-02T12:09:27.735Z,23.15
2017-07-02T12:10:37.961Z,23.04
2017-07-02T12:11:47.877Z,23.07
2017-07-02T12:12:57.779Z,23.05
2017-07-02T12:14:07.533Z,23.1
2017-07-02T12:15:17.452Z,23.04
2017-07-02T12:16:27.363Z,23.1
2017-07-02T12:17:37.299Z,23.1
2017-07-02T12:18:46.596Z,23.09
2017-07-02T12:19:55.893Z,23.09
2017-07-02T12:21:05.491Z,23.02
2017-07-02T12:22:15.411Z,23
2017-07-02T12:23:25.636Z,23
2017-07-02T12:24:35.874Z,22.94
2017-07-02T12:25:45.927Z,22.94
2017-07-02T12:26:55.830Z,22.9
2017-07-02T12:28:05.749Z,22.97
2017-07-02T12:29:15.340Z,22.88
2017-07-02T12:30:24.957Z,22.9
2017-07-02T12:31:34.558Z,22.85
2017-07-02T12:32:43.845Z,22.9
2017-07-02T12:33:53.754Z,22.88
2017-07-02T12:35:03.035Z,22.85
2017-07-02T12:36:12.029Z,22.82
2017-07-02T12:37:22.591Z,22.79
2017-07-02T12:38:32.503Z,22.77
2017-07-02T12:39:42.092Z,22.8
2017-07-02T12:40:51.708Z,22.79
2017-07-02T12:42:01.319Z,22.85
2017-07-02T12:43:11.024Z,22.8
2017-07-02T12:44:21.257Z,22.76
2017-07-02T12:45:30.867Z,22.79
2017-07-02T12:46:40.479Z,22.77
2017-07-02T12:47:50.105Z,22.82
2017-07-02T12:49:00.134Z,22.85
2017-07-02T12:50:10.048Z,22.85
2017-07-02T12:51:20.272Z,22.83
2017-07-02T12:52:30.203Z,22.92
2017-07-02T12:53:40.425Z,22.97
2017-07-02T12:54:50.037Z,22.85
2017-07-02T12:56:00.267Z,22.9
2017-07-02T12:57:10.744Z,22.88
2017-07-02T12:58:20.710Z,22.86
2017-07-02T12:59:30.953Z,22.91
2017-07-02T13:00:40.977Z,22.9
2017-07-02T13:01:50.591Z,22.85
2017-07-02T13:03:00.810Z,22.85
2017-07-02T13:04:10.412Z,22.85
2017-07-02T13:05:20.648Z,22.88
2017-07-02T13:06:30.566Z,22.82
2017-07-02T13:07:40.788Z,22.8
2017-07-02T13:08:51.013Z,22.8
2017-07-02T13:10:00.626Z,22.8
2017-07-02T13:11:10.849Z,22.77
2017-07-02T13:12:20.913Z,22.82
2017-07-02T13:13:31.131Z,22.8
2017-07-02T13:14:41.039Z,22.75
2017-07-02T13:15:50.631Z,22.79
2017-07-02T13:17:00.549Z,22.77
2017-07-02T13:18:10.869Z,22.75
2017-07-02T13:19:21.083Z,22.65
2017-07-02T13:20:31.305Z,22.68
2017-07-02T13:21:41.536Z,22.68
2017-07-02T13:22:51.135Z,22.61
2017-07-02T13:24:00.898Z,22.58
2017-07-02T13:25:10.815Z,22.6
2017-07-02T13:26:20.761Z,22.65
2017-07-02T13:27:30.358Z,22.57
2017-07-02T13:28:40.267Z,22.6
2017-07-02T13:29:49.565Z,22.61
2017-07-02T13:30:59.485Z,22.7
2017-07-02T13:32:09.395Z,22.58
2017-07-02T13:33:19.307Z,22.58
2017-07-02T13:34:29.532Z,22.61
2017-07-02T13:35:39.581Z,22.55
2017-07-02T13:36:49.495Z,22.52
2017-07-02T13:37:59.399Z,22.55
2017-07-02T13:39:09.043Z,22.55
2017-07-02T13:40:18.343Z,22.61
2017-07-02T13:41:27.807Z,22.6
2017-07-02T13:42:37.417Z,22.6
2017-07-02T13:43:47.346Z,22.6
2017-07-02T13:44:57.628Z,22.55
2017-07-02T13:46:07.852Z,22.58
2017-07-02T13:47:18.170Z,22.62
2017-07-02T13:48:27.773Z,22.61
2017-07-02T13:49:37.061Z,22.55
2017-07-02T13:50:46.717Z,22.51
2017-07-02T13:51:56.625Z,22.6
2017-07-02T13:53:06.895Z,22.51
2017-07-02T13:54:17.126Z,22.51
2017-07-02T13:55:27.044Z,22.54
2017-07-02T13:56:37.272Z,22.39
2017-07-02T13:57:47.186Z,22.45
2017-07-02T13:58:57.243Z,22.37
2017-07-02T14:00:07.472Z,22.31
2017-07-02T14:01:17.770Z,22.3
2017-07-02T14:02:27.678Z,22.31
2017-07-02T14:03:37.611Z,22.25
2017-07-02T14:04:47.527Z,22.21
2017-07-02T14:05:56.824Z,22.25
2017-07-02T14:07:06.737Z,22.18
2017-07-02T14:08:16.351Z,22.18
2017-07-02T14:09:26.574Z,22.2
2017-07-02T14:10:36.581Z,22.27
2017-07-02T14:11:46.502Z,22.24
2017-07-02T14:12:56.412Z,22.27
2017-07-02T14:14:06.329Z,22.22
2017-07-02T14:15:16.239Z,22.25
2017-07-02T14:16:26.135Z,22.22
2017-07-02T14:17:36.039Z,22.25
2017-07-02T14:18:46.247Z,22.2
2017-07-02T14:19:56.154Z,22.18
2017-07-02T14:21:06.059Z,22.22
2017-07-02T14:22:16.372Z,22.22
2017-07-02T14:23:26.280Z,22.14
2017-07-02T14:24:36.500Z,22.2
2017-07-02T14:25:46.410Z,22.22
2017-07-02T14:26:56.619Z,22.22
2017-07-02T14:28:06.987Z,22.22
2017-07-02T14:29:17.190Z,22.27
2017-07-02T14:30:27.401Z,22.27
2017-07-02T14:31:37.303Z,22.28
2017-07-02T14:32:47.513Z,22.31
2017-07-02T14:33:57.574Z,22.3
2017-07-02T14:35:07.808Z,22.35
2017-07-02T14:36:17.423Z,22.46
2017-07-02T14:37:27.628Z,22.46
2017-07-02T14:38:37.608Z,22.45
2017-07-02T14:39:47.867Z,22.47
2017-07-02T14:40:57.774Z,22.46
2017-07-02T14:42:07.372Z,22.46
2017-07-02T14:43:17.278Z,22.46
2017-07-02T14:44:27.176Z,22.52
2017-07-02T14:45:36.466Z,22.51
2017-07-02T14:46:46.670Z,22.49
2017-07-02T14:47:56.893Z,22.46
2017-07-02T14:49:06.842Z,22.54
2017-07-02T14:50:16.755Z,22.39
2017-07-02T14:51:26.836Z,22.43
2017-07-02T14:52:37.073Z,22.52
2017-07-02T14:53:46.674Z,22.6
2017-07-02T14:54:56.588Z,22.58
2017-07-02T14:56:06.814Z,22.51
2017-07-02T14:57:17.082Z,22.55
2017-07-02T14:58:26.398Z,22.62
2017-07-02T14:59:36.618Z,22.7
2017-07-02T15:00:46.566Z,22.68
2017-07-02T15:01:56.177Z,22.65
2017-07-02T15:03:06.238Z,22.58
2017-07-02T15:04:16.162Z,22.62
2017-07-02T15:05:26.382Z,22.58
2017-07-02T15:06:35.687Z,22.67